Latest Coastal Weather Observations for Cape Jaffa

IDS60701

Issued at 8:11 am CDT Friday 19 December 2014 (issued every 10 minutes, with the page automatically refreshed every 10 minutes)

About coastal observations | Map of coastal stations | Coastal observations for SA | Marine services | Other Formats
Station Details ID: 026095 Name: THE LIMESTONE Lat: -36.97 Lon: 139.72 Height: 17.0 m
Data from the previous 72 hours. | See also: Recent months at Cape Jaffa
Date/Time
CDT
Temp

°C
Wind Pressure Rain
since 9am
mm
Weather Cloud Vis
km
Sea
Height
m
Swell
Dir
 
Speed
knots
Gust
knots
hPa Trend Height
m
Period
s
Dir
19/08:00am 15.5 SW 10 13 1019.0 - 0.6 - - - - - - -
19/07:30am 15.0 SW 9 11 1018.6 - 0.6 - - - - - - -
19/07:00am 14.3 SW 8 11 1018.1 - 0.6 - - - - - - -
19/06:30am 13.8 SW 6 8 1017.8 - 0.6 - - - - - - -
19/06:00am 13.3 SW 7 10 1017.5 - 0.6 - - - - - - -
19/05:30am 13.2 SW 7 10 1017.2 - 0.6 - - - - - - -
19/05:00am 13.4 SSW 8 10 1017.0 - 0.6 - - - - - - -
19/04:30am 14.4 SW 10 13 1016.9 - 0.6 - - - - - - -
19/04:00am 14.2 SW 9 12 1016.9 - 0.6 - - - - - - -
19/03:30am 13.5 SW 8 10 1016.6 - 0.6 - - - - - - -
19/03:00am 13.8 SW 8 11 1016.5 - 0.6 - - - - - - -
19/02:30am 14.1 SW 9 12 1016.6 - 0.6 - - - - - - -
19/02:00am 14.2 SW 9 11 1016.6 - 0.6 - - - - - - -
19/01:30am 14.3 SW 10 13 1016.7 - 0.6 - - - - - - -
19/01:00am 14.4 SW 10 13 1016.7 - 0.6 - - - - - - -
19/12:30am 14.1 SW 9 12 1016.7 - 0.6 - - - - - - -
19/12:00am 14.3 SW 10 13 1016.6 - 0.6 - - - - - - -
 
Date/Time
CDT
Temp

°C
Wind Pressure Rain
since 9am
mm
Weather Cloud Vis
km
Sea
Height
m
Swell
Dir
 
Speed
knots
Gust
knots
hPa Trend Height
m
Period
s
Dir
18/11:30pm 15.0 SW 9 12 1016.4 - 0.6 - - - - - - -
18/11:00pm 14.3 SW 10 13 1016.3 - 0.6 - - - - - - -
18/10:30pm 14.6 SW 12 16 1016.1 - 0.6 - - - - - - -
18/10:00pm 14.7 SW 12 15 1015.9 - 0.6 - - - - - - -
18/09:30pm 14.7 SW 10 15 1015.7 - 0.6 - - - - - - -
18/09:00pm 14.7 SW 11 15 1015.3 - 0.6 - - - - - - -
18/08:30pm 15.0 SW 13 17 1015.0 - 0.6 - - - - - - -
18/08:00pm 15.4 SW 12 16 1014.8 - 0.6 - - - - - - -
18/07:30pm 16.1 SW 14 18 1014.3 - 0.6 - - - - - - -
18/07:00pm 16.7 SW 15 20 1013.8 - 0.6 - - - - - - -
18/06:30pm 17.0 SW 16 20 1013.4 - 0.6 - - - - - - -
18/06:00pm 17.6 SW 17 21 1013.0 - 0.6 - - - - - - -
18/05:30pm 18.0 SW 17 21 1012.7 - 0.6 - - - - - - -
18/05:00pm 18.6 WSW 18 21 1012.5 - 0.6 - - - - - - -
18/04:30pm 18.8 WSW 19 24 1012.4 - 0.6 - - - - - - -
18/04:00pm 18.2 WSW 18 23 1012.0 - 0.6 - - - - - - -
18/03:30pm 19.2 WSW 19 23 1011.8 - 0.6 - - - - - - -
18/03:00pm 19.5 WSW 19 24 1011.6 - 0.6 - - - - - - -
18/02:30pm 19.2 WSW 20 25 1010.9 - 0.6 - - - - - - -
18/02:00pm 19.3 WSW 21 27 1010.6 - 0.6 - - - - - - -
18/01:30pm 18.9 WSW 18 24 1010.5 - 0.6 - - - - - - -
18/01:00pm 18.4 WSW 19 24 1010.4 - 0.6 - - - - - - -
18/12:30pm 17.7 WSW 17 22 1010.1 - 0.6 - - - - - - -
18/12:00pm 15.7 WSW 16 23 1009.8 - 0.6 Recent precip. - - - - - -
18/11:30am 15.5 WSW 20 28 1009.2 - 0.4 - - - - - - -
18/11:00am 17.3 WSW 18 24 1008.7 - 0.2 - - - - - - -
18/10:30am 15.7 W 15 20 1008.5 - 0.2 - - - - - - -
18/10:05am 17.4 WNW 18 29 1008.2 - 0.0 - - - - - - -
18/10:00am 18.7 WNW 17 22 1008.1 - 0.0 - - - - - - -
18/09:30am 18.3 WNW 19 25 1008.1 - 0.0 - - - - - - -
18/09:00am 18.6 WNW 17 22 1007.8 - 0.2 - - - - - - -
18/08:30am 17.8 WNW 15 21 1007.4 - 0.2 - - - - - - -
18/08:00am 17.2 WNW 14 18 1007.2 - 0.2 - - - - - - -
18/07:30am 16.3 WNW 14 18 1007.0 - 0.2 - - - - - - -
18/07:08am 15.4 WNW 15 26 1006.9 - 0.2 - - - - - - -
18/07:00am 16.5 WNW 11 17 1006.8 - 0.0 - - - - - - -
18/06:30am 15.9 WNW 12 17 1006.6 - 0.0 - - - - - - -
18/06:00am 15.2 WNW 13 18 1006.4 - 0.0 - - - - - - -
18/05:30am 16.0 NW 12 17 1006.1 - 0.0 - - - - - - -
18/05:00am 15.7 NW 10 13 1006.0 - 0.0 - - - - - - -
18/04:30am 15.9 NW 10 14 1005.7 - 0.0 - - - - - - -
18/04:00am 15.0 NW 9 12 1005.6 - 0.0 - - - - - - -
18/03:30am 15.3 NW 10 13 1006.1 - 0.0 - - - - - - -
18/03:00am 14.9 NW 9 12 1006.2 - 0.0 - - - - - - -
18/02:30am 14.5 NW 7 9 1006.3 - 0.0 - - - - - - -
18/02:00am 14.4 NW 7 10 1006.6 - 0.0 - - - - - - -
18/01:30am 14.3 NW 7 9 1006.7 - 0.0 - - - - - - -
18/01:00am 14.2 NNW 7 10 1007.0 - 0.0 - - - - - - -
18/12:30am 14.5 NW 6 8 1007.6 - 0.0 - - - - - - -
18/12:00am 14.7 NNW 7 9 1007.7 - 0.0 - - - - - - -
 
Date/Time
CDT
Temp

°C
Wind Pressure Rain
since 9am
mm
Weather Cloud Vis
km
Sea
Height
m
Swell
Dir
 
Speed
knots
Gust
knots
hPa Trend Height
m
Period
s
Dir
17/11:30pm 14.1 N 6 7 1007.6 - 0.0 - - - - - - -
17/11:00pm 13.0 NNW 5 7 1007.8 - 0.0 - - - - - - -
17/10:30pm 13.2 NNW 3 4 1008.0 - 0.0 - - - - - - -
17/10:00pm 13.4 N 3 4 1008.0 - 0.0 - - - - - - -
17/09:30pm 13.7 NNW 2 3 1008.1 - 0.0 - - - - - - -
17/09:00pm 14.4 NW 2 2 1008.0 - 0.0 - - - - - - -
17/08:30pm 14.5 WNW 3 4 1008.3 - 0.0 - - - - - - -
17/08:00pm 15.5 NW 4 6 1008.4 - 0.0 - - - - - - -
17/07:30pm 16.4 NNW 4 6 1008.3 - 0.0 - - - - - - -
17/07:00pm 17.2 WNW 5 8 1008.3 - 0.0 - - - - - - -
17/06:30pm 17.8 WNW 7 9 1007.9 - 0.0 - - - - - - -
17/06:00pm 17.6 NW 7 12 1008.0 - 0.0 - - - - - - -
17/05:30pm 17.9 NW 7 11 1008.0 - 0.0 - - - - - - -
17/05:00pm 17.8 N 9 13 1008.1 - 0.0 - - - - - - -
17/04:30pm 18.1 WNW 6 9 1008.3 - 0.0 - - - - - - -
17/04:00pm 17.7 WNW 9 16 1008.8 - 0.0 - - - - - - -
17/03:30pm 18.4 W 8 13 1009.0 - 0.0 - - - - - - -
17/03:00pm 18.4 W 10 15 1009.2 - 0.0 - - - - - - -
17/02:30pm 18.4 WNW 9 16 1009.3 - 0.0 - - - - - - -
17/02:00pm 17.8 WNW 10 16 1009.5 - 0.0 - - - - - - -
17/01:30pm 18.2 WNW 10 15 1009.7 - 0.0 - - - - - - -
17/01:00pm 18.3 WNW 10 15 1010.0 - 0.0 - - - - - - -
17/12:30pm 18.1 WNW 9 13 1010.2 - 0.0 - - - - - - -
17/12:00pm 17.8 NW 10 13 1010.2 - 0.0 - - - - - - -
17/11:30am 17.2 WNW 9 15 1010.3 - 0.0 - - - - - - -
17/11:00am 16.7 W 9 14 1010.5 - 0.0 - - - - - - -
17/10:30am 17.0 WNW 8 15 1010.6 - 0.0 - - - - - - -
17/10:00am 16.8 W 7 13 1010.4 - 0.0 - - - - - - -
17/09:30am 16.5 W 8 12 1010.5 - 0.0 - - - - - - -
17/09:00am 16.4 W 8 13 1010.6 - 1.8 - - - - - - -
17/08:30am 15.0 W 9 12 1010.6 - 1.8 - - - - - - -
17/08:00am 15.0 W 8 12 1010.5 - 1.8 - - - - - - -
17/07:30am 14.7 WSW 7 9 1010.2 - 1.8 - - - - - - -
17/07:00am 13.7 CALM 0 2 1009.8 - 1.8 - - - - - - -
17/06:30am 11.9 WNW 1 2 1009.6 - 1.8 - - - - - - -
17/06:00am 11.6 WSW 3 5 1009.2 - 1.8 - - - - - - -
17/05:30am 13.0 SW 5 6 1008.8 - 1.8 - - - - - - -
17/05:00am 13.5 W 3 4 1008.4 - 1.8 - - - - - - -
17/04:30am 13.4 SW 5 7 1008.0 - 1.8 - - - - - - -
17/04:00am 13.6 SSW 7 10 1007.7 - 1.8 - - - - - - -
17/03:30am 13.6 SW 7 9 1007.6 - 1.8 - - - - - - -
17/03:00am 13.2 SW 7 11 1007.6 - 1.8 - - - - - - -
17/02:30am 13.5 SW 10 12 1007.7 - 1.8 - - - - - - -
17/02:00am 13.4 SW 8 11 1007.9 - 1.8 - - - - - - -
17/01:30am 13.7 SW 11 15 1007.8 - 1.8 - - - - - - -
17/01:00am 13.8 SW 12 16 1007.9 - 1.8 - - - - - - -
17/12:30am 13.8 SW 12 16 1008.1 - 1.8 - - - - - - -
17/12:00am 14.4 SW 12 18 1008.3 - 1.8 - - - - - - -
 
Date/Time
CDT
Temp

°C
Wind Pressure Rain
since 9am
mm
Weather Cloud Vis
km
Sea
Height
m
Swell
Dir
 
Speed
knots
Gust
knots
hPa Trend Height
m
Period
s
Dir
16/11:30pm 13.9 WSW 13 17 1008.3 - 1.8 - - - - - - -
16/11:00pm 14.4 SW 13 18 1008.2 - 1.8 - - - - - - -
16/10:30pm 14.4 SW 14 19 1008.2 - 1.8 - - - - - - -
16/10:00pm 14.5 SW 15 20 1007.9 - 1.8 - - - - - - -
16/09:30pm 14.3 SW 15 21 1007.6 - 1.8 - - - - - - -
16/09:00pm 14.5 SW 15 20 1007.2 - 1.8 - - - - - - -
16/08:30pm 14.7 SW 17 22 1006.8 - 1.8 - - - - - - -
16/08:00pm 15.4 WSW 18 23 1006.3 - 1.8 - - - - - - -
16/07:30pm 15.9 WSW 18 24 1005.9 - 1.8 - - - - - - -
16/07:00pm 15.9 SW 18 24 1005.6 - 1.8 - - - - - - -
16/06:30pm 16.4 SW 20 26 1005.1 - 1.8 - - - - - - -
16/06:00pm 17.3 WSW 21 28 1004.5 - 1.8 - - - - - - -
16/05:30pm 18.1 WSW 23 29 1004.2 - 1.8 - - - - - - -
16/05:00pm 16.9 WSW 21 28 1004.0 - 1.8 - - - - - - -
16/04:30pm 18.1 WSW 26 31 1003.5 - 1.8 - - - - - - -
16/04:00pm 18.6 WSW 21 27 1003.3 - 1.8 - - - - - - -
16/03:30pm 18.6 W 23 29 1002.9 - 1.8 - - - - - - -
16/03:00pm 18.3 WSW 25 33 1002.4 - 1.8 - - - - - - -
16/02:30pm 18.0 WSW 27 34 1002.0 - 1.8 - - - - - - -
16/02:00pm 16.4 W 24 35 1001.6 - 1.8 - - - - - - -
16/01:52pm 16.8 W 25 35 1001.2 - 1.8 - - - - - - -
16/01:30pm 19.0 W 26 32 1000.8 - 1.8 - - - - - - -
16/01:00pm 18.6 W 24 32 1000.1 - 1.8 - - - - - - -
16/12:30pm 17.4 WNW 19 26 1000.0 - 1.8 - - - - - - -
16/12:00pm 15.0 WNW 16 21 999.4 - 1.8 Recent precip. - - - - - -
16/11:30am 13.2 W 17 26 999.4 - 1.8 - - - - - - -
16/11:16am 15.2 NW 20 29 999.5 - 0.8 - - - - - - -
16/11:00am 17.7 NNW 18 24 998.6 - 0.0 - - - - - - -
16/10:30am 18.9 NW 18 23 998.5 - 0.0 - - - - - - -
16/10:00am 18.5 NW 17 21 998.9 - 0.0 - - - - - - -
16/09:30am 18.9 NNW 15 20 999.1 - 0.0 - - - - - - -
16/09:00am 18.1 NNW 15 20 999.3 - 0.0 - - - - - - -
16/08:30am 17.5 NW 13 17 999.2 - 0.0 - - - - - - -

Other Formats:

Comma delimited format used in spreadsheet applications
http://www.bom.gov.au/fwo/IDS60701/IDS60701.94813.axf

JavaScript Object Notation format (JSON) in row-major order
http://www.bom.gov.au/fwo/IDS60701/IDS60701.94813.json